Time;durP1;ratioP1;P1;durP2;ratioP2;P2;SDS_P1;SDS_P2;PMS_P1;PMS_P2;Temp;Humidity;BMP_temperature;BMP_pressure;BME280_temperature;BME280_humidity;BME280_pressure;Samples;Min_cycle;Max_cycle;Signal;HPM_P1;HPM_P2
2022/08/22 00:01:06;;;;;;;10.73;4.45;;;17.20;99.90;;;;;;4978698;28;20109;-88
2022/08/22 00:03:41;;;;;;;9.98;4.88;;;17.20;99.90;;;;;;5073251;28;20049;-89
2022/08/22 00:10:30;;;;;;;8.10;4.80;;;17.20;99.90;;;;;;5348976;22;21036;-76
2022/08/22 00:13:01;;;;;;;8.75;4.68;;;17.20;99.90;;;;;;4949772;28;20150;-76
2022/08/22 00:15:37;;;;;;;7.72;4.20;;;17.20;99.90;;;;;;4953446;28;20132;-77
2022/08/22 00:18:14;;;;;;;13.82;4.80;;;17.10;99.90;;;;;;4937600;28;20079;-76
2022/08/22 00:20:48;;;;;;;9.25;4.80;;;17.10;99.90;;;;;;4929559;28;20141;-76
2022/08/22 00:23:49;;;;;;;9.10;5.15;;;17.10;99.90;;;;;;4954523;28;20047;-76
2022/08/22 00:26:39;;;;;;;8.32;5.15;;;17.10;99.90;;;;;;4936121;28;20121;-76
2022/08/22 00:29:10;;;;;;;9.63;5.22;;;17.10;99.90;;;;;;4954589;28;20475;-76
2022/08/22 00:31:42;;;;;;;7.85;4.90;;;17.00;99.90;;;;;;4930673;28;20054;-76
2022/08/22 00:34:22;;;;;;;7.93;4.80;;;17.00;99.90;;;;;;4953947;28;20051;-77
2022/08/22 00:37:22;;;;;;;9.23;4.70;;;17.00;99.90;;;;;;4930318;28;20054;-77
2022/08/22 00:39:55;;;;;;;8.38;4.50;;;16.90;99.90;;;;;;4951851;28;20105;-76
2022/08/22 00:42:30;;;;;;;8.15;5.30;;;17.00;99.90;;;;;;4952926;28;20113;-76
2022/08/22 00:44:55;;;;;;;10.18;4.88;;;16.90;99.90;;;;;;4970750;28;20520;-77
2022/08/22 00:47:44;;;;;;;7.15;4.55;;;17.00;99.90;;;;;;4973991;28;20094;-76
2022/08/22 00:50:32;;;;;;;10.20;5.07;;;16.90;99.90;;;;;;4991470;28;20093;-77
2022/08/22 00:53:43;;;;;;;9.13;5.20;;;16.90;99.90;;;;;;4990370;28;20057;-77
2022/08/22 00:56:21;;;;;;;11.27;5.10;;;16.90;99.90;;;;;;4972046;28;20400;-76
2022/08/22 00:59:11;;;;;;;8.65;5.10;;;16.90;99.90;;;;;;4990141;28;20073;-75
2022/08/22 01:01:46;;;;;;;8.50;4.55;;;16.80;99.90;;;;;;4989290;28;20058;-77
2022/08/22 01:04:30;;;;;;;7.35;5.25;;;16.80;99.90;;;;;;4989460;28;20125;-76
2022/08/22 01:07:22;;;;;;;9.40;5.05;;;16.80;99.90;;;;;;4990312;28;20058;-76
2022/08/22 01:10:13;;;;;;;11.77;5.47;;;16.80;99.90;;;;;;4970854;28;20058;-76
2022/08/22 01:13:01;;;;;;;8.90;4.40;;;16.70;99.90;;;;;;4987944;28;20050;-77
2022/08/22 01:15:30;;;;;;;7.63;4.60;;;16.70;99.90;;;;;;4987185;28;20394;-77
2022/08/22 01:18:21;;;;;;;9.85;4.88;;;16.70;99.90;;;;;;4973472;28;20133;-77
2022/08/22 01:21:04;;;;;;;13.30;4.93;;;16.70;99.90;;;;;;4972647;28;20050;-77
2022/08/22 01:23:45;;;;;;;10.82;5.05;;;15.80;99.90;;;;;;4970720;28;20089;-77
2022/08/22 01:26:52;;;;;;;10.52;5.20;;;16.70;99.90;;;;;;4972967;28;20049;-77
2022/08/22 01:30:00;;;;;;;9.27;4.85;;;16.70;99.90;;;;;;4949930;28;20062;-76
2022/08/22 01:33:03;;;;;;;13.15;5.43;;;16.70;99.90;;;;;;4965598;28;20612;-77
2022/08/22 01:35:50;;;;;;;8.00;5.90;;;16.60;99.90;;;;;;4989491;28;20081;-76
2022/08/22 01:38:24;;;;;;;13.82;5.93;;;16.70;99.90;;;;;;4988887;28;20069;-77
2022/08/22 01:41:16;;;;;;;12.38;6.00;;;16.60;99.90;;;;;;4973914;28;20122;-75
2022/08/22 01:44:02;;;;;;;7.93;5.68;;;16.60;99.90;;;;;;4989696;28;20061;-76
2022/08/22 01:46:59;;;;;;;12.32;6.72;;;16.60;99.90;;;;;;4974156;28;20046;-76
2022/08/22 01:49:25;;;;;;;;;;;16.60;99.90;;;;;;5006331;28;20042;-76
2022/08/22 01:52:06;;;;;;;9.03;5.70;;;16.50;99.90;;;;;;4973499;28;19932;-75
2022/08/22 01:54:54;;;;;;;11.32;5.55;;;16.50;99.90;;;;;;4973353;28;20046;-76
2022/08/22 01:57:22;;;;;;;9.65;5.85;;;16.50;99.90;;;;;;4983027;28;20063;-75
2022/08/22 01:59:52;;;;;;;10.18;5.32;;;16.50;99.90;;;;;;4990345;28;20128;-76
2022/08/22 02:02:21;;;;;;;10.38;5.88;;;16.50;99.90;;;;;;4992255;28;20052;-77
2022/08/22 02:05:02;;;;;;;11.93;5.75;;;16.50;99.90;;;;;;4998375;28;20058;-78
2022/08/22 02:08:02;;;;;;;7.45;5.18;;;16.40;99.90;;;;;;5014077;28;20114;-77
2022/08/22 02:11:00;;;;;;;13.45;5.85;;;16.40;99.90;;;;;;4980400;28;20050;-77
2022/08/22 02:13:32;;;;;;;8.27;5.43;;;16.40;99.90;;;;;;5012117;28;20049;-77
2022/08/22 02:16:19;;;;;;;11.27;5.72;;;16.40;99.90;;;;;;5012360;28;20107;-76
2022/08/22 02:18:56;;;;;;;10.25;4.93;;;16.40;99.90;;;;;;5020016;28;20041;-77
2022/08/22 02:21:40;;;;;;;8.00;5.15;;;16.40;99.90;;;;;;5020285;28;20044;-78
2022/08/22 02:24:23;;;;;;;6.97;5.20;;;16.30;99.90;;;;;;5019193;28;20049;-76
2022/08/22 02:27:07;;;;;;;6.63;4.65;;;16.30;99.90;;;;;;4995323;28;20372;-76
2022/08/22 02:29:56;;;;;;;9.07;5.03;;;16.30;99.90;;;;;;5011789;28;20052;-76
2022/08/22 02:32:40;;;;;;;6.10;4.72;;;16.30;99.90;;;;;;4995099;28;20095;-76
2022/08/22 02:35:19;;;;;;;7.70;5.45;;;16.30;99.90;;;;;;5010558;28;20067;-77
2022/08/22 02:38:13;;;;;;;8.70;5.07;;;16.30;99.90;;;;;;5012297;28;20052;-77
2022/08/22 02:41:16;;;;;;;9.10;5.50;;;16.30;99.90;;;;;;5009714;28;20403;-77
2022/08/22 02:44:12;;;;;;;9.40;5.22;;;16.20;99.90;;;;;;5010544;28;20049;-77
2022/08/22 02:47:01;;;;;;;9.00;5.45;;;16.20;99.90;;;;;;5009323;28;20041;-77
2022/08/22 02:49:32;;;;;;;7.25;5.32;;;16.10;99.90;;;;;;5011869;28;20056;-76
2022/08/22 02:52:03;;;;;;;9.80;5.45;;;16.10;99.90;;;;;;4995688;28;20700;-76
2022/08/22 02:54:59;;;;;;;8.50;5.43;;;16.10;99.90;;;;;;5010692;28;20061;-76
2022/08/22 02:57:52;;;;;;;9.35;5.25;;;16.10;99.90;;;;;;4996161;28;20046;-76
2022/08/22 03:00:20;;;;;;;10.82;5.93;;;16.00;99.90;;;;;;4994662;28;20411;-76
2022/08/22 03:02:55;;;;;;;9.95;5.85;;;16.00;99.90;;;;;;5012813;28;20471;-76
2022/08/22 03:05:41;;;;;;;11.15;5.10;;;16.00;99.90;;;;;;4996243;28;20072;-76
2022/08/22 03:08:20;;;;;;;7.43;5.22;;;16.00;99.90;;;;;;4983801;28;20499;-74
2022/08/22 03:11:00;;;;;;;9.20;5.38;;;16.00;99.90;;;;;;5010287;28;20064;-75
2022/08/22 03:14:07;;;;;;;6.85;5.25;;;15.90;99.90;;;;;;5009625;28;20371;-76
2022/08/22 03:16:37;;;;;;;9.73;5.93;;;15.90;99.90;;;;;;4982170;28;20054;-76
2022/08/22 03:19:15;;;;;;;7.82;5.53;;;15.90;99.90;;;;;;5011028;28;20529;-76
2022/08/22 03:21:50;;;;;;;10.88;6.10;;;15.90;99.90;;;;;;5009767;28;20057;-77
2022/08/22 03:24:43;;;;;;;7.93;5.95;;;15.90;99.90;;;;;;5010762;28;20042;-77
2022/08/22 03:27:23;;;;;;;9.82;5.63;;;15.90;99.90;;;;;;5011996;28;20089;-76
2022/08/22 03:29:54;;;;;;;8.45;5.72;;;15.90;99.90;;;;;;5008479;28;20470;-77
2022/08/22 03:32:23;;;;;;;11.43;5.97;;;15.90;99.90;;;;;;4994857;28;20049;-77
2022/08/22 03:35:03;;;;;;;13.60;6.60;;;15.80;99.90;;;;;;4991083;28;20391;-76
2022/08/22 03:37:40;;;;;;;9.57;6.07;;;15.80;99.90;;;;;;5010137;28;20204;-76
2022/08/22 03:40:30;;;;;;;12.40;6.70;;;15.80;99.90;;;;;;4993622;28;20053;-77
2022/08/22 03:43:14;;;;;;;9.80;6.10;;;15.70;99.90;;;;;;5009907;28;20522;-77
2022/08/22 03:46:17;;;;;;;11.85;6.40;;;15.70;99.90;;;;;;5012274;28;20052;-77
2022/08/22 03:49:37;;;;;;;12.38;6.60;;;15.70;99.90;;;;;;5014214;28;20092;-76
2022/08/22 03:52:17;;;;;;;11.65;6.35;;;15.70;99.90;;;;;;4914411;29;20048;-77
2022/08/22 03:55:01;;;;;;;11.38;6.70;;;15.60;99.90;;;;;;4986998;28;20140;-76
2022/08/22 03:58:12;;;;;;;10.15;6.30;;;15.60;99.90;;;;;;5013840;28;20107;-77
2022/08/22 04:01:01;;;;;;;9.48;6.65;;;15.50;99.90;;;;;;4981107;28;20061;-77
2022/08/22 04:03:54;;;;;;;9.27;5.78;;;15.60;99.90;;;;;;5030628;28;20054;-77
2022/08/22 04:06:26;;;;;;;10.13;6.10;;;15.50;99.90;;;;;;5014221;28;20042;-77
2022/08/22 04:09:19;;;;;;;8.73;5.55;;;15.50;99.90;;;;;;5013566;28;20045;-76
2022/08/22 04:12:14;;;;;;;8.27;6.00;;;15.60;99.90;;;;;;5012759;28;20092;-77
2022/08/22 04:14:54;;;;;;;7.28;5.47;;;15.50;99.90;;;;;;5013653;28;20446;-77
2022/08/22 04:17:51;;;;;;;9.82;6.13;;;15.50;99.90;;;;;;5014100;28;20053;-77
2022/08/22 04:20:42;;;;;;;10.02;5.38;;;15.50;99.90;;;;;;5015207;28;20089;-77
2022/08/22 04:23:26;;;;;;;7.20;4.47;;;15.50;99.90;;;;;;5012255;28;20152;-77
2022/08/22 04:26:04;;;;;;;7.38;4.60;;;15.50;99.90;;;;;;5014411;28;20140;-76
2022/08/22 04:28:50;;;;;;;8.45;5.85;;;15.40;99.90;;;;;;5014964;28;20042;-76
2022/08/22 04:31:31;;;;;;;9.23;4.88;;;15.50;99.90;;;;;;5013946;28;20168;-76
2022/08/22 04:34:01;;;;;;;7.30;5.22;;;15.40;99.90;;;;;;5031207;28;20064;-76
2022/08/22 04:36:42;;;;;;;7.78;4.90;;;15.40;99.90;;;;;;5013090;28;20319;-76
2022/08/22 04:39:17;;;;;;;9.55;5.90;;;15.40;99.90;;;;;;5013860;28;20046;-76
2022/08/22 04:41:58;;;;;;;8.67;5.80;;;15.40;99.90;;;;;;5012233;28;20060;-76
2022/08/22 04:44:50;;;;;;;10.80;5.20;;;15.30;99.90;;;;;;5013588;28;20642;-76
2022/08/22 04:47:25;;;;;;;8.68;5.00;;;15.30;99.90;;;;;;4996031;28;20088;-76
2022/08/22 04:50:12;;;;;;;8.48;5.18;;;15.30;99.90;;;;;;5013718;28;20056;-76
2022/08/22 04:53:02;;;;;;;7.75;5.35;;;15.30;99.90;;;;;;5015240;28;20046;-76
2022/08/22 04:55:38;;;;;;;11.27;6.60;;;15.30;99.90;;;;;;5014672;28;20053;-76
2022/08/22 04:58:22;;;;;;;11.77;5.97;;;15.30;99.90;;;;;;5036539;28;20044;-77
2022/08/22 05:01:03;;;;;;;10.50;5.35;;;15.30;99.90;;;;;;5037987;28;20080;-77
2022/08/22 05:03:33;;;;;;;10.43;5.82;;;15.30;99.90;;;;;;5029692;28;20060;-75
2022/08/22 05:06:02;;;;;;;7.97;5.57;;;15.20;99.90;;;;;;5014137;28;20053;-76
2022/08/22 05:08:32;;;;;;;7.60;5.22;;;15.20;99.90;;;;;;5014117;28;20415;-75
2022/08/22 05:11:01;;;;;;;8.95;5.22;;;15.20;99.90;;;;;;4998445;28;20199;-76
2022/08/22 05:13:56;;;;;;;8.35;4.80;;;15.20;99.90;;;;;;5006734;28;20053;-75
2022/08/22 05:16:32;;;;;;;8.25;4.97;;;15.20;99.90;;;;;;5034818;28;20461;-76
2022/08/22 05:19:16;;;;;;;12.68;5.78;;;15.30;99.90;;;;;;5019261;28;20409;-76
2022/08/22 05:21:44;;;;;;;6.30;4.80;;;15.30;99.90;;;;;;5011068;28;20049;-77
2022/08/22 05:24:19;;;;;;;9.90;5.18;;;15.30;99.90;;;;;;4997032;28;20337;-80
2022/08/22 05:26:51;;;;;;;12.20;5.45;;;16.00;99.90;;;;;;5013878;28;20048;-81
2022/08/22 05:29:21;;;;;;;9.23;5.78;;;15.30;99.90;;;;;;4996026;28;20050;-81
2022/08/22 05:31:53;;;;;;;8.05;5.28;;;15.30;99.90;;;;;;5021381;28;20580;-83
2022/08/22 05:34:25;;;;;;;7.93;5.80;;;15.30;99.90;;;;;;5011788;28;20049;-81
2022/08/22 05:36:58;;;;;;;15.05;6.57;;;15.40;99.90;;;;;;5012724;28;20136;-82
2022/08/22 05:39:26;;;;;;;10.82;6.07;;;15.40;99.90;;;;;;4996110;28;20071;-81
2022/08/22 05:41:58;;;;;;;8.60;5.68;;;15.40;99.90;;;;;;5013019;28;20056;-82
2022/08/22 05:44:27;;;;;;;9.98;6.05;;;15.40;99.90;;;;;;5012545;28;20052;-79
2022/08/22 05:47:12;;;;;;;10.32;6.05;;;15.40;99.90;;;;;;4995536;28;20373;-83
2022/08/22 05:49:50;;;;;;;8.48;4.72;;;15.40;99.90;;;;;;5005058;28;20072;-81
2022/08/22 05:52:54;;;;;;;7.82;4.45;;;15.40;99.90;;;;;;5011823;28;20072;-82
2022/08/22 05:55:28;;;;;;;11.75;5.00;;;15.40;99.90;;;;;;4995414;28;20049;-81
2022/08/22 05:58:18;;;;;;;9.02;5.00;;;15.40;99.90;;;;;;4996005;28;20736;-83
2022/08/22 06:00:50;;;;;;;10.02;4.53;;;15.50;99.90;;;;;;5012631;28;20049;-81
2022/08/22 06:03:43;;;;;;;9.40;5.13;;;15.50;99.90;;;;;;4992947;28;20060;-82
2022/08/22 06:06:15;;;;;;;9.75;5.43;;;15.50;99.90;;;;;;4994252;28;20420;-82
2022/08/22 06:09:06;;;;;;;9.82;4.70;;;15.50;99.90;;;;;;5011053;28;20056;-83
2022/08/22 06:11:42;;;;;;;9.10;5.78;;;15.50;99.90;;;;;;4995702;28;20069;-81
2022/08/22 06:14:15;;;;;;;9.60;5.53;;;15.60;99.90;;;;;;5011135;28;20556;-81
2022/08/22 06:17:01;;;;;;;9.13;4.93;;;15.60;99.90;;;;;;5013734;28;20076;-82
2022/08/22 06:19:27;;;;;;;8.23;5.10;;;15.60;99.90;;;;;;5012080;28;20057;-80
2022/08/22 06:21:56;;;;;;;6.88;5.20;;;14.90;99.90;;;;;;4995902;28;20045;-80
2022/08/22 06:24:25;;;;;;;11.85;5.75;;;15.70;99.90;;;;;;4977266;28;20049;-82
2022/08/22 06:26:57;;;;;;;12.75;6.05;;;15.80;99.90;;;;;;4996109;28;20402;-81
2022/08/22 06:29:34;;;;;;;7.63;4.45;;;15.90;99.90;;;;;;4993513;28;20045;-81
2022/08/22 06:32:09;;;;;;;7.97;4.82;;;16.00;99.90;;;;;;4996703;28;20624;-81
2022/08/22 06:34:39;;;;;;;9.20;5.25;;;15.40;99.90;;;;;;5011311;28;20052;-82
2022/08/22 06:37:10;;;;;;;11.80;4.78;;;16.20;99.90;;;;;;5011699;28;20111;-80
2022/08/22 06:39:42;;;;;;;9.63;5.20;;;16.30;99.90;;;;;;4994205;28;20486;-79
2022/08/22 06:42:09;;;;;;;8.55;5.20;;;16.40;99.90;;;;;;5012191;28;20124;-80
2022/08/22 06:44:48;;;;;;;10.45;4.65;;;16.60;99.90;;;;;;5010716;28;20049;-79
2022/08/22 06:47:23;;;;;;;11.60;5.15;;;16.70;99.90;;;;;;5010518;28;20099;-79
2022/08/22 06:49:55;;;;;;;8.18;4.82;;;16.90;99.90;;;;;;5011637;28;20099;-82
2022/08/22 06:52:23;;;;;;;10.35;5.07;;;17.00;99.90;;;;;;4994854;28;20049;-78
2022/08/22 06:54:59;;;;;;;9.70;5.43;;;17.20;99.90;;;;;;4979431;28;20095;-79
2022/08/22 06:57:41;;;;;;;10.13;5.40;;;17.30;99.90;;;;;;5011153;28;20396;-79
2022/08/22 07:00:12;;;;;;;8.25;4.95;;;17.50;99.90;;;;;;5009987;28;20077;-79
2022/08/22 07:02:41;;;;;;;10.95;5.30;;;17.60;99.90;;;;;;5011717;28;20461;-80
2022/08/22 07:05:15;;;;;;;8.15;4.50;;;17.80;99.90;;;;;;4993111;28;20496;-78
2022/08/22 07:07:41;;;;;;;9.20;4.40;;;17.90;99.90;;;;;;4995306;28;20046;-78
2022/08/22 07:10:13;;;;;;;11.63;4.80;;;18.10;99.90;;;;;;4995200;28;20068;-79
2022/08/22 07:12:45;;;;;;;7.40;3.80;;;18.30;99.90;;;;;;5024819;28;20448;-79
2022/08/22 07:15:21;;;;;;;8.70;4.05;;;18.40;99.90;;;;;;4993021;28;20482;-81
2022/08/22 07:17:56;;;;;;;9.95;4.13;;;18.70;99.90;;;;;;5009661;28;20091;-79
2022/08/22 07:20:30;;;;;;;7.63;3.60;;;18.90;99.90;;;;;;5011146;28;20195;-79
2022/08/22 07:23:01;;;;;;;7.57;3.35;;;19.10;99.90;;;;;;5025659;28;20517;-81
2022/08/22 07:25:28;;;;;;;10.32;3.50;;;19.30;99.90;;;;;;5011445;28;20045;-80
2022/08/22 07:28:34;;;;;;;9.73;3.50;;;19.40;99.90;;;;;;5009536;28;20080;-80
2022/08/22 07:31:35;;;;;;;8.83;3.40;;;19.50;99.90;;;;;;4993703;28;20080;-80
2022/08/22 07:34:35;;;;;;;8.73;3.10;;;19.60;99.90;;;;;;4960947;28;20312;-79
2022/08/22 07:37:04;;;;;;;9.77;3.40;;;19.90;99.90;;;;;;4954287;28;20056;-80
2022/08/22 07:39:49;;;;;;;7.07;3.42;;;20.10;99.90;;;;;;4991831;28;20832;-79
2022/08/22 07:42:30;;;;;;;9.05;3.40;;;20.20;99.90;;;;;;4988608;28;20112;-77
2022/08/22 07:45:10;;;;;;;8.05;3.20;;;20.50;99.90;;;;;;5010158;28;20049;-76
2022/08/22 07:47:55;;;;;;;11.95;3.67;;;20.70;99.90;;;;;;5027865;28;20095;-77
2022/08/22 07:50:32;;;;;;;8.00;3.08;;;21.00;99.90;;;;;;5009283;28;20076;-76
2022/08/22 07:53:23;;;;;;;5.82;2.40;;;21.20;99.90;;;;;;5009236;28;20045;-76
2022/08/22 07:55:52;;;;;;;9.35;2.80;;;21.30;99.90;;;;;;5012188;28;20703;-75
2022/08/22 07:58:22;;;;;;;7.82;2.58;;;21.40;99.90;;;;;;5010936;28;20042;-75
2022/08/22 08:00:49;;;;;;;6.15;2.40;;;21.20;99.90;;;;;;4991669;28;20068;-76
2022/08/22 08:03:16;;;;;;;6.30;2.20;;;21.80;99.90;;;;;;4995031;28;20109;-75
2022/08/22 08:05:43;;;;;;;10.27;2.92;;;21.80;99.90;;;;;;4984868;28;20057;-76
2022/08/22 08:08:33;;;;;;;8.23;2.60;;;21.80;99.90;;;;;;5019884;28;20084;-76
2022/08/22 08:11:01;;;;;;;5.80;1.90;;;21.90;99.90;;;;;;5016325;28;20050;-76
2022/08/22 08:13:36;;;;;;;8.40;2.20;;;22.00;99.90;;;;;;4993957;28;20148;-76
2022/08/22 08:16:05;;;;;;;6.07;2.00;;;22.20;99.90;;;;;;5011370;28;20071;-76
2022/08/22 08:18:34;;;;;;;5.13;1.77;;;22.20;99.90;;;;;;5010639;28;20057;-76
2022/08/22 08:21:05;;;;;;;6.60;2.08;;;22.40;99.90;;;;;;5009843;28;20085;-77
2022/08/22 08:23:38;;;;;;;4.97;1.85;;;22.50;99.90;;;;;;4993078;28;20099;-75
2022/08/22 08:26:14;;;;;;;6.25;1.67;;;22.80;99.90;;;;;;5010946;28;20053;-77
2022/08/22 08:28:45;;;;;;;4.80;1.60;;;23.10;99.90;;;;;;5026378;28;20103;-76
2022/08/22 08:31:34;;;;;;;5.35;1.95;;;23.40;99.90;;;;;;5012778;28;20099;-76
2022/08/22 08:34:20;;;;;;;6.40;2.13;;;23.60;99.90;;;;;;4996693;28;20049;-76
2022/08/22 08:36:51;;;;;;;4.13;1.40;;;23.90;99.90;;;;;;4997724;28;20055;-77
2022/08/22 08:39:26;;;;;;;4.78;1.65;;;24.20;99.90;;;;;;5013296;28;20049;-77
2022/08/22 08:42:04;;;;;;;6.80;1.73;;;24.30;99.90;;;;;;5014207;28;20207;-76
2022/08/22 08:45:08;;;;;;;4.70;1.80;;;24.50;99.90;;;;;;5012770;28;20049;-76
2022/08/22 08:47:57;;;;;;;3.92;1.75;;;24.80;99.90;;;;;;4998458;28;20057;-76
2022/08/22 08:50:29;;;;;;;5.32;1.80;;;25.10;99.90;;;;;;4966155;28;20137;-76
2022/08/22 08:53:24;;;;;;;6.38;1.70;;;25.50;99.90;;;;;;4997378;28;20041;-77
2022/08/22 08:56:11;;;;;;;5.22;1.88;;;25.70;99.90;;;;;;5013977;28;20050;-77
2022/08/22 08:58:57;;;;;;;5.97;1.92;;;25.80;99.90;;;;;;5013747;28;20075;-77
2022/08/22 09:01:24;;;;;;;;;;;25.70;99.90;;;;;;4998007;28;20409;-76
2022/08/22 09:04:08;;;;;;;5.28;1.40;;;25.80;99.90;;;;;;4997028;28;19925;-77
2022/08/22 09:06:44;;;;;;;6.18;1.73;;;25.90;99.90;;;;;;5013395;28;20128;-76
2022/08/22 09:09:35;;;;;;;5.00;1.73;;;26.20;99.90;;;;;;4994443;28;20100;-82
2022/08/22 09:12:39;;;;;;;5.40;1.88;;;26.10;99.90;;;;;;4991552;28;20045;-80
2022/08/22 09:15:17;;;;;;;6.32;1.65;;;26.20;99.90;;;;;;4983106;28;20069;-81
2022/08/22 09:18:24;;;;;;;4.43;1.63;;;26.40;99.90;;;;;;4990425;28;20051;-81
2022/08/22 09:21:07;;;;;;;4.68;1.60;;;26.70;99.90;;;;;;4962217;28;20042;-82
2022/08/22 09:23:35;;;;;;;4.00;1.30;;;26.90;99.90;;;;;;4931388;28;20047;-82
2022/08/22 09:26:11;;;;;;;5.57;1.52;;;27.00;99.90;;;;;;4968589;28;20410;-81
2022/08/22 09:29:06;;;;;;;4.25;1.55;;;27.20;99.90;;;;;;5009541;28;20236;-81
2022/08/22 09:31:46;;;;;;;4.68;1.48;;;27.40;99.90;;;;;;5011430;28;20056;-84
2022/08/22 09:34:21;;;;;;;4.75;1.33;;;28.60;99.20;;;;;;4993516;28;20511;-88
2022/08/22 09:37:08;;;;;;;4.85;1.73;;;27.50;98.80;;;;;;4990058;28;20125;-80
2022/08/22 09:39:47;;;;;;;4.57;1.60;;;27.50;98.60;;;;;;5009143;28;20057;-81
2022/08/22 09:42:31;;;;;;;5.47;1.45;;;27.60;97.10;;;;;;5009523;28;21880;-83
2022/08/22 09:45:06;;;;;;;3.85;1.50;;;27.60;97.30;;;;;;5011857;28;20045;-85
2022/08/22 09:47:46;;;;;;;5.07;1.58;;;27.70;96.90;;;;;;5007190;28;20053;-81
2022/08/22 09:50:47;;;;;;;4.95;1.70;;;27.90;96.30;;;;;;5008307;28;20479;-83
2022/08/22 09:53:33;;;;;;;4.38;1.88;;;27.90;95.30;;;;;;4991428;28;20097;-83
2022/08/22 09:56:03;;;;;;;4.53;1.42;;;28.00;95.70;;;;;;5008573;28;20048;-81
2022/08/22 09:58:46;;;;;;;5.65;1.80;;;28.20;96.30;;;;;;4992918;28;20487;-81
2022/08/22 10:01:23;;;;;;;3.85;1.30;;;28.30;95.70;;;;;;5006707;28;20049;-81
2022/08/22 10:04:13;;;;;;;4.53;1.30;;;28.40;95.80;;;;;;5005044;28;20049;-81
2022/08/22 10:06:59;;;;;;;3.40;1.58;;;28.40;94.40;;;;;;5005912;28;20041;-82
2022/08/22 10:09:31;;;;;;;4.80;1.60;;;28.40;94.20;;;;;;5001483;28;20115;-83
2022/08/22 10:12:09;;;;;;;3.83;1.58;;;28.40;94.40;;;;;;5004036;28;20054;-82
2022/08/22 10:15:08;;;;;;;4.53;1.38;;;28.50;92.50;;;;;;4989626;28;20274;-83
2022/08/22 10:17:38;;;;;;;5.70;1.55;;;28.70;92.80;;;;;;5002327;28;20147;-82
2022/08/22 10:20:23;;;;;;;4.43;1.30;;;28.80;93.30;;;;;;5001423;28;20045;-80
2022/08/22 10:23:28;;;;;;;4.53;1.47;;;29.00;92.00;;;;;;5000133;28;20491;-82
2022/08/22 10:26:12;;;;;;;5.55;1.70;;;29.00;90.30;;;;;;5001829;28;20104;-82
2022/08/22 10:28:59;;;;;;;7.20;1.80;;;29.00;90.70;;;;;;5001502;28;20054;-83
2022/08/22 10:31:39;;;;;;;4.45;1.48;;;29.10;91.20;;;;;;4983974;28;20049;-83
2022/08/22 10:34:35;;;;;;;4.50;1.70;;;29.20;90.60;;;;;;5003148;28;20045;-83
2022/08/22 10:37:22;;;;;;;4.18;1.70;;;29.10;88.50;;;;;;5004330;28;20053;-82
2022/08/22 10:40:20;;;;;;;3.85;1.45;;;29.20;90.00;;;;;;4999015;28;20226;-82
2022/08/22 10:43:09;;;;;;;4.57;1.65;;;29.20;88.60;;;;;;4999595;28;20042;-82
2022/08/22 10:45:45;;;;;;;3.63;1.33;;;29.30;90.10;;;;;;4984093;28;20092;-83
2022/08/22 10:48:17;;;;;;;4.75;1.50;;;29.40;88.80;;;;;;5020188;28;20336;-82
2022/08/22 10:50:47;;;;;;;2.88;1.23;;;29.50;90.20;;;;;;5008980;28;20041;-83
2022/08/22 10:53:32;;;;;;;3.92;1.30;;;29.60;89.70;;;;;;4984187;28;20046;-81
2022/08/22 10:56:16;;;;;;;4.82;1.38;;;29.70;85.70;;;;;;4983952;28;20057;-84
2022/08/22 10:59:02;;;;;;;5.97;1.38;;;29.90;85.80;;;;;;4985623;28;20054;-78
2022/08/22 11:01:36;;;;;;;5.07;1.40;;;30.10;84.60;;;;;;5000016;28;20054;-83
2022/08/22 11:04:11;;;;;;;3.50;1.40;;;30.20;84.60;;;;;;5018735;28;20081;-84
2022/08/22 11:06:49;;;;;;;4.07;1.23;;;30.30;83.20;;;;;;4983289;28;20519;-82
2022/08/22 11:09:24;;;;;;;5.25;1.55;;;29.70;80.90;;;;;;4985144;28;20046;-83
2022/08/22 11:12:32;;;;;;;4.43;1.40;;;29.60;81.10;;;;;;5002125;28;20603;-82
2022/08/22 11:15:01;;;;;;;4.80;1.63;;;29.10;79.80;;;;;;4999086;28;20053;-81
2022/08/22 11:17:53;;;;;;;5.18;1.80;;;29.50;83.20;;;;;;4986066;28;20459;-81
2022/08/22 11:20:41;;;;;;;5.63;1.77;;;29.50;80.60;;;;;;4987306;28;20606;-82
2022/08/22 11:23:29;;;;;;;4.95;1.55;;;29.80;78.90;;;;;;4984734;28;20042;-81
2022/08/22 11:26:00;;;;;;;4.10;1.63;;;29.70;77.30;;;;;;4984388;28;20050;-83
2022/08/22 11:28:38;;;;;;;3.65;1.50;;;30.00;78.10;;;;;;4985129;28;20076;-83
2022/08/22 11:31:18;;;;;;;4.20;1.42;;;30.20;77.30;;;;;;4984979;28;20046;-83
2022/08/22 11:33:57;;;;;;;3.80;1.27;;;29.80;76.80;;;;;;4978311;28;20906;-82
2022/08/22 11:36:33;;;;;;;4.18;1.40;;;30.10;76.80;;;;;;4984116;28;20045;-86
2022/08/22 11:39:11;;;;;;;4.93;1.55;;;30.20;76.80;;;;;;5002009;28;21844;-83
2022/08/22 11:41:45;;;;;;;3.17;1.23;;;30.40;73.70;;;;;;5000643;28;20042;-82
2022/08/22 11:44:23;;;;;;;4.97;1.40;;;30.70;75.50;;;;;;5007599;28;20054;-82
2022/08/22 11:46:53;;;;;;;6.57;1.40;;;31.50;73.90;;;;;;5013090;28;20101;-82
2022/08/22 11:49:47;;;;;;;3.75;1.38;;;30.80;73.70;;;;;;5009562;28;20049;-81
2022/08/22 11:52:21;;;;;;;4.72;1.60;;;30.80;74.30;;;;;;5003647;28;20476;-81
2022/08/22 11:55:17;;;;;;;3.35;1.25;;;30.80;73.10;;;;;;5001586;28;20088;-82
2022/08/22 11:57:50;;;;;;;4.03;1.50;;;31.10;72.60;;;;;;4999134;28;20054;-82
2022/08/22 12:00:25;;;;;;;4.38;1.40;;;31.30;73.80;;;;;;4983085;28;20259;-82
2022/08/22 12:03:25;;;;;;;4.63;1.23;;;31.10;72.30;;;;;;4999724;28;20049;-81
2022/08/22 12:06:02;;;;;;;3.78;1.45;;;30.80;71.40;;;;;;5001010;28;20304;-81
2022/08/22 12:08:52;;;;;;;5.13;1.80;;;30.50;73.80;;;;;;4986475;28;20140;-82
2022/08/22 12:11:41;;;;;;;3.78;1.40;;;30.40;73.20;;;;;;4985760;28;20054;-82
2022/08/22 12:14:19;;;;;;;4.28;1.58;;;30.20;71.60;;;;;;4986857;28;20107;-82
2022/08/22 12:17:12;;;;;;;4.00;1.42;;;29.80;72.80;;;;;;5001203;28;20451;-82
2022/08/22 12:20:21;;;;;;;3.75;1.60;;;29.40;73.10;;;;;;4984140;28;20042;-82
2022/08/22 12:23:15;;;;;;;3.30;1.25;;;29.40;73.00;;;;;;5003413;28;20128;-84
2022/08/22 12:25:59;;;;;;;4.38;1.45;;;29.50;74.20;;;;;;4998003;28;20515;-81
2022/08/22 12:29:00;;;;;;;7.18;1.60;;;29.90;74.00;;;;;;4984625;28;20495;-83
2022/08/22 12:31:48;;;;;;;4.90;1.60;;;30.30;74.10;;;;;;4943427;28;20043;-83
2022/08/22 12:34:24;;;;;;;3.50;1.45;;;30.50;73.10;;;;;;4995324;28;20062;-83
2022/08/22 12:36:53;;;;;;;3.90;1.40;;;30.70;72.80;;;;;;5000335;28;20053;-81
2022/08/22 12:39:51;;;;;;;4.70;1.67;;;31.10;72.50;;;;;;5000685;28;20096;-82
2022/08/22 12:42:36;;;;;;;4.55;1.45;;;31.50;72.50;;;;;;4987449;28;20250;-83
2022/08/22 12:45:30;;;;;;;4.33;1.33;;;32.00;71.60;;;;;;5023353;28;20058;-82
2022/08/22 12:48:29;;;;;;;6.65;1.75;;;31.80;68.50;;;;;;4991175;28;20319;-83
2022/08/22 12:51:27;;;;;;;5.53;1.60;;;31.60;68.70;;;;;;4984991;28;20500;-83
2022/08/22 12:53:56;;;;;;;5.15;1.42;;;31.50;68.40;;;;;;4990547;28;20048;-84
2022/08/22 12:56:47;;;;;;;3.45;1.38;;;31.10;70.10;;;;;;4990803;28;20049;-83
2022/08/22 12:59:33;;;;;;;4.00;1.25;;;30.90;69.90;;;;;;4990563;28;20050;-84
2022/08/22 13:02:10;;;;;;;4.53;1.38;;;31.10;71.10;;;;;;5005764;28;20160;-84
2022/08/22 13:04:44;;;;;;;2.72;1.17;;;31.50;71.50;;;;;;5006694;28;20056;-84
2022/08/22 13:07:16;;;;;;;3.60;1.50;;;31.90;69.40;;;;;;5004813;28;20843;-83
2022/08/22 13:09:52;;;;;;;3.13;1.38;;;32.10;68.10;;;;;;5005486;28;20045;-83
2022/08/22 13:12:24;;;;;;;4.00;1.17;;;32.10;68.00;;;;;;4988357;28;20256;-84
2022/08/22 13:14:58;;;;;;;5.00;1.35;;;32.10;67.10;;;;;;4988956;28;20046;-83
2022/08/22 13:17:25;;;;;;;4.50;1.40;;;32.10;67.00;;;;;;4988089;28;20050;-82
2022/08/22 13:20:10;;;;;;;3.80;1.23;;;32.00;67.50;;;;;;5000465;28;20246;-82
2022/08/22 13:22:40;;;;;;;2.80;1.23;;;31.90;65.70;;;;;;5000373;28;20053;-83
2022/08/22 13:25:24;;;;;;;3.78;1.48;;;31.80;66.60;;;;;;5002025;28;20100;-83
2022/08/22 13:28:00;;;;;;;3.92;1.25;;;31.40;67.40;;;;;;4999899;28;20053;-82
2022/08/22 13:30:32;;;;;;;4.43;1.48;;;31.00;68.50;;;;;;4986145;28;20154;-83
2022/08/22 13:33:12;;;;;;;4.88;1.38;;;30.60;69.00;;;;;;4985647;28;20177;-82
2022/08/22 13:35:47;;;;;;;4.93;1.55;;;30.30;70.20;;;;;;5004176;28;20046;-79
2022/08/22 13:38:23;;;;;;;3.38;1.30;;;30.00;70.60;;;;;;4982698;28;20115;-78
2022/08/22 13:40:51;;;;;;;4.30;1.40;;;29.70;71.90;;;;;;4984981;28;20053;-78
2022/08/22 13:43:21;;;;;;;3.63;1.55;;;29.40;72.30;;;;;;5020653;28;20056;-81
2022/08/22 13:45:57;;;;;;;2.90;1.35;;;29.10;72.20;;;;;;5008806;28;20057;-83
2022/08/22 13:48:27;;;;;;;4.20;1.20;;;29.00;72.50;;;;;;5006337;28;20164;-83
2022/08/22 13:51:13;;;;;;;4.65;1.90;;;28.80;72.90;;;;;;4979868;28;20133;-81
2022/08/22 13:53:48;;;;;;;6.00;1.48;;;28.30;72.70;;;;;;4980882;28;20602;-84
2022/08/22 13:56:22;;;;;;;;;;;28.50;73.20;;;;;;5010202;28;20042;-82
2022/08/22 13:59:02;;;;;;;3.72;1.27;;;28.40;72.40;;;;;;5021587;28;19957;-82
2022/08/22 14:01:49;;;;;;;3.97;1.38;;;28.30;73.20;;;;;;5024659;28;20108;-83